Ah Gwah Ching, Minnesota
Current Conditions -  °F | °C
As of 1:55 AM on Friday 24 Oct 2014 (Local Time) from KY49 Reporting Station
Clear Clear  
Wind Chill: 53°   Ceiling: Unl
Heat Index: 53°   Visibility: 10mi
Dew Point: 40°   Wind: 9mph
Humidity: 61%   Direction: 230°SW
Pressure: 29.84"   Gusts: NA
Location:  47.08°N, 94.57°W
Report Text: KY49 240655Z AUTO 23008KT 10SM CLR 12/05 A2984 RMK AO2 T01190046
Loading
Personal Weather Stations






























Interactive Weather Map
Tropical Storm Tracking
New forecast layout! Learn more

10-Day Weather Forecast

Advertisements
Track Severe Weather on mobile